<?xml version='1.0' encoding='UTF-8'?><gpx version="1.1" creator="JPX - https://github.com/jenetics/jpx" xmlns="http://www.topografix.com/GPX/1/1"><trk><trkseg><trkpt lat="40.1006625" lon="9.6931251"><ele>414.00000000000006</ele><time>2026-04-26T10:41:00.696Z</time></trkpt><trkpt lat="40.1007279" lon="9.6930851"><ele>414.0</ele><time>2026-04-26T10:41:13.439Z</time></trkpt><trkpt lat="40.1007294" lon="9.6930005"><ele>414.0</ele><time>2026-04-26T10:41:21.731Z</time></trkpt><trkpt lat="40.1006631" lon="9.6929801"><ele>414.0</ele><time>2026-04-26T10:41:28.731Z</time></trkpt><trkpt lat="40.1007192" lon="9.6929215"><ele>414.0</ele><time>2026-04-26T10:41:37.733Z</time></trkpt><trkpt lat="40.1007451" lon="9.6928437"><ele>414.00000000000006</ele><time>2026-04-26T10:41:50.732Z</time></trkpt><trkpt lat="40.1007861" lon="9.6927801"><ele>414.0</ele><time>2026-04-26T10:42:05.632Z</time></trkpt><trkpt lat="40.1007213" lon="9.6927773"><ele>408.5714285714286</ele><time>2026-04-26T10:42:12.733Z</time></trkpt><trkpt lat="40.1006724" lon="9.6927225"><ele>403.14285714285717</ele><time>2026-04-26T10:42:23.732Z</time></trkpt><trkpt lat="40.1006162" lon="9.6926785"><ele>397.7142857142857</ele><time>2026-04-26T10:42:31.733Z</time></trkpt><trkpt lat="40.1005704" lon="9.6926218"><ele>392.28571428571433</ele><time>2026-04-26T10:42:44.731Z</time></trkpt><trkpt lat="40.100506" lon="9.6926226"><ele>386.85714285714283</ele><time>2026-04-26T10:42:52.731Z</time></trkpt><trkpt lat="40.1004504" lon="9.6926656"><ele>381.42857142857144</ele><time>2026-04-26T10:43:00.731Z</time></trkpt><trkpt lat="40.1003795" lon="9.6926831"><ele>376.0</ele><time>2026-04-26T10:43:14.73Z</time></trkpt><trkpt lat="40.1003201" lon="9.692645"><ele>376.0</ele><time>2026-04-26T10:43:33.731Z</time></trkpt><trkpt lat="40.1003533" lon="9.6925646"><ele>376.0</ele><time>2026-04-26T10:43:45.731Z</time></trkpt><trkpt lat="40.1002877" lon="9.6925436"><ele>376.0</ele><time>2026-04-26T10:43:55.731Z</time></trkpt><trkpt lat="40.1002278" lon="9.6925177"><ele>376.0</ele><time>2026-04-26T10:44:10.732Z</time></trkpt><trkpt lat="40.1001597" lon="9.6924914"><ele>376.0</ele><time>2026-04-26T10:44:20.731Z</time></trkpt><trkpt lat="40.1001448" lon="9.692403"><ele>376.0</ele><time>2026-04-26T10:44:32.732Z</time></trkpt><trkpt lat="40.1002153" lon="9.6923772"><ele>376.0</ele><time>2026-04-26T10:44:46.64Z</time></trkpt><trkpt lat="40.1001705" lon="9.6923136"><ele>376.0</ele><time>2026-04-26T10:44:55.731Z</time></trkpt><trkpt lat="40.1001592" lon="9.6922311"><ele>376.0</ele><time>2026-04-26T10:45:11.731Z</time></trkpt><trkpt lat="40.1000868" lon="9.6921231"><ele>376.0</ele><time>2026-04-26T10:46:13.731Z</time></trkpt><trkpt lat="40.1000768" lon="9.6920275"><ele>376.0</ele><time>2026-04-26T10:46:26.732Z</time></trkpt><trkpt lat="40.1001138" lon="9.6919592"><ele>376.0</ele><time>2026-04-26T10:46:57.731Z</time></trkpt><trkpt lat="40.1000664" lon="9.6919"><ele>376.0</ele><time>2026-04-26T10:47:08.73Z</time></trkpt><trkpt lat="40.0999964" lon="9.6919086"><ele>376.0</ele><time>2026-04-26T10:47:34.732Z</time></trkpt><trkpt lat="40.1000624" lon="9.6918939"><ele>371.85714285714283</ele><time>2026-04-26T10:47:40.73Z</time></trkpt><trkpt lat="40.1000975" lon="9.6918165"><ele>367.71428571428567</ele><time>2026-04-26T10:47:55.731Z</time></trkpt><trkpt lat="40.1000376" lon="9.6917726"><ele>363.57142857142856</ele><time>2026-04-26T10:48:08.71Z</time></trkpt><trkpt lat="40.1000276" lon="9.6916869"><ele>359.42857142857144</ele><time>2026-04-26T10:48:24.731Z</time></trkpt><trkpt lat="40.1000347" lon="9.6915888"><ele>355.2857142857143</ele><time>2026-04-26T10:48:40.73Z</time></trkpt><trkpt lat="40.1000067" lon="9.6915113"><ele>351.14285714285717</ele><time>2026-04-26T10:48:49.731Z</time></trkpt><trkpt lat="40.0999379" lon="9.6914982"><ele>347.0</ele><time>2026-04-26T10:48:58.633Z</time></trkpt><trkpt lat="40.0999026" lon="9.6914293"><ele>347.0</ele><time>2026-04-26T10:49:13.731Z</time></trkpt><trkpt lat="40.0998816" lon="9.6913466"><ele>347.0</ele><time>2026-04-26T10:49:23.714Z</time></trkpt><trkpt lat="40.0998623" lon="9.6912615"><ele>347.0</ele><time>2026-04-26T10:49:37.731Z</time></trkpt><trkpt lat="40.0998545" lon="9.6911743"><ele>347.0</ele><time>2026-04-26T10:49:48.731Z</time></trkpt><trkpt lat="40.0998065" lon="9.6911166"><ele>347.0</ele><time>2026-04-26T10:50:04.731Z</time></trkpt><trkpt lat="40.0998772" lon="9.6911319"><ele>347.0</ele><time>2026-04-26T10:50:09.732Z</time></trkpt><trkpt lat="40.0999511" lon="9.6911609"><ele>347.0</ele><time>2026-04-26T10:50:17.731Z</time></trkpt><trkpt lat="40.1000206" lon="9.6911646"><ele>345.2857142857143</ele><time>2026-04-26T10:50:23.594Z</time></trkpt><trkpt lat="40.1000751" lon="9.6912289"><ele>343.57142857142856</ele><time>2026-04-26T10:50:29.731Z</time></trkpt><trkpt lat="40.1001457" lon="9.6912161"><ele>341.85714285714283</ele><time>2026-04-26T10:50:35.568Z</time></trkpt><trkpt lat="40.1001631" lon="9.691127"><ele>340.1428571428571</ele><time>2026-04-26T10:50:40.634Z</time></trkpt><trkpt lat="40.1001101" lon="9.6910637"><ele>338.42857142857144</ele><time>2026-04-26T10:50:46.732Z</time></trkpt><trkpt lat="40.1000615" lon="9.6910021"><ele>336.71428571428567</ele><time>2026-04-26T10:50:52.73Z</time></trkpt><trkpt lat="40.1001102" lon="9.6909071"><ele>335.0</ele><time>2026-04-26T10:51:39.73Z</time></trkpt><trkpt lat="40.1001726" lon="9.6908719"><ele>332.1428571428571</ele><time>2026-04-26T10:51:45.73Z</time></trkpt><trkpt lat="40.1002302" lon="9.6909201"><ele>329.2857142857143</ele><time>2026-04-26T10:52:01.654Z</time></trkpt><trkpt lat="40.1002933" lon="9.6909447"><ele>326.42857142857144</ele><time>2026-04-26T10:52:07.711Z</time></trkpt><trkpt lat="40.1003442" lon="9.6908866"><ele>323.57142857142856</ele><time>2026-04-26T10:52:18.73Z</time></trkpt><trkpt lat="40.1004083" lon="9.6908775"><ele>320.7142857142857</ele><time>2026-04-26T10:52:25.729Z</time></trkpt><trkpt lat="40.1004642" lon="9.6908396"><ele>317.85714285714283</ele><time>2026-04-26T10:52:33.73Z</time></trkpt><trkpt lat="40.1005359" lon="9.6908598"><ele>315.0</ele><time>2026-04-26T10:52:50.73Z</time></trkpt><trkpt lat="40.1005976" lon="9.6908806"><ele>315.0</ele><time>2026-04-26T10:52:56.731Z</time></trkpt><trkpt lat="40.1006665" lon="9.6908697"><ele>315.0</ele><time>2026-04-26T10:53:03.729Z</time></trkpt><trkpt lat="40.1007293" lon="9.6908303"><ele>315.0</ele><time>2026-04-26T10:53:13.63Z</time></trkpt><trkpt lat="40.1007889" lon="9.6907739"><ele>315.0</ele><time>2026-04-26T10:53:27.73Z</time></trkpt><trkpt lat="40.1008521" lon="9.6907507"><ele>315.0</ele><time>2026-04-26T10:53:34.73Z</time></trkpt><trkpt lat="40.100922" lon="9.6907563"><ele>315.0</ele><time>2026-04-26T10:53:41.618Z</time></trkpt><trkpt lat="40.1009183" lon="9.6906711"><ele>315.0</ele><time>2026-04-26T10:53:49.729Z</time></trkpt><trkpt lat="40.1008745" lon="9.6907362"><ele>315.0</ele><time>2026-04-26T10:53:55.729Z</time></trkpt><trkpt lat="40.1008157" lon="9.6907798"><ele>315.0</ele><time>2026-04-26T10:54:02.73Z</time></trkpt><trkpt lat="40.1007571" lon="9.6908273"><ele>315.0</ele><time>2026-04-26T10:54:11.73Z</time></trkpt><trkpt lat="40.1006923" lon="9.6908327"><ele>315.0</ele><time>2026-04-26T10:54:18.73Z</time></trkpt><trkpt lat="40.100668" lon="9.6907559"><ele>315.0</ele><time>2026-04-26T10:54:23.729Z</time></trkpt><trkpt lat="40.1006499" lon="9.6906646"><ele>315.0</ele><time>2026-04-26T10:54:30.729Z</time></trkpt><trkpt lat="40.1006848" lon="9.6905866"><ele>315.0</ele><time>2026-04-26T10:54:38.73Z</time></trkpt><trkpt lat="40.1007435" lon="9.690534"><ele>310.7142857142857</ele><time>2026-04-26T10:54:44.657Z</time></trkpt><trkpt lat="40.1007914" lon="9.6904691"><ele>306.42857142857144</ele><time>2026-04-26T10:54:51.73Z</time></trkpt><trkpt lat="40.1008285" lon="9.6903966"><ele>302.1428571428571</ele><time>2026-04-26T10:54:59.729Z</time></trkpt><trkpt lat="40.1008874" lon="9.6903411"><ele>297.8571428571429</ele><time>2026-04-26T10:55:07.729Z</time></trkpt><trkpt lat="40.1009161" lon="9.6902629"><ele>293.57142857142856</ele><time>2026-04-26T10:55:15.73Z</time></trkpt><trkpt lat="40.1009575" lon="9.6901944"><ele>289.2857142857143</ele><time>2026-04-26T10:55:23.73Z</time></trkpt><trkpt lat="40.1010081" lon="9.6901415"><ele>285.0</ele><time>2026-04-26T10:55:32.55Z</time></trkpt><trkpt lat="40.1010386" lon="9.6900634"><ele>282.7142857142857</ele><time>2026-04-26T10:55:43.673Z</time></trkpt><trkpt lat="40.1010774" lon="9.6899935"><ele>280.42857142857144</ele><time>2026-04-26T10:55:52.73Z</time></trkpt><trkpt lat="40.1011054" lon="9.689898"><ele>278.14285714285717</ele><time>2026-04-26T10:55:59.657Z</time></trkpt><trkpt lat="40.1011132" lon="9.6898135"><ele>275.8571428571429</ele><time>2026-04-26T10:56:06.73Z</time></trkpt><trkpt lat="40.1011187" lon="9.6897307"><ele>273.5714285714286</ele><time>2026-04-26T10:56:13.73Z</time></trkpt><trkpt lat="40.101136" lon="9.6896393"><ele>271.2857142857143</ele><time>2026-04-26T10:56:21.729Z</time></trkpt><trkpt lat="40.1011358" lon="9.6895417"><ele>269.0</ele><time>2026-04-26T10:56:28.731Z</time></trkpt><trkpt lat="40.1011366" lon="9.6894488"><ele>265.0</ele><time>2026-04-26T10:56:35.737Z</time></trkpt><trkpt lat="40.1011005" lon="9.6893792"><ele>261.0</ele><time>2026-04-26T10:56:44.73Z</time></trkpt><trkpt lat="40.1010846" lon="9.6892949"><ele>257.0</ele><time>2026-04-26T10:56:51.661Z</time></trkpt><trkpt lat="40.1005926" lon="9.6866861"><ele>252.6</ele><time>2026-04-26T11:03:44.729Z</time></trkpt><trkpt lat="40.100676" lon="9.6868124"><ele>248.2</ele><time>2026-04-26T11:04:19.655Z</time></trkpt><trkpt lat="40.100754" lon="9.6869428"><ele>243.8</ele><time>2026-04-26T11:04:29.73Z</time></trkpt><trkpt lat="40.1008144" lon="9.6869778"><ele>239.4</ele><time>2026-04-26T11:04:36.73Z</time></trkpt><trkpt lat="40.1008501" lon="9.6869057"><ele>235.0</ele><time>2026-04-26T11:04:59.729Z</time></trkpt><trkpt lat="40.1009426" lon="9.6869771"><ele>232.0</ele><time>2026-04-26T11:05:57.73Z</time></trkpt><trkpt lat="40.1010043" lon="9.6869439"><ele>229.0</ele><time>2026-04-26T11:06:03.73Z</time></trkpt><trkpt lat="40.1010529" lon="9.6869914"><ele>226.0</ele><time>2026-04-26T11:06:21.677Z</time></trkpt><trkpt lat="40.1009803" lon="9.6870104"><ele>223.0</ele><time>2026-04-26T11:06:32.728Z</time></trkpt><trkpt lat="40.1009517" lon="9.6871993"><ele>220.0</ele><time>2026-04-26T11:08:22.729Z</time></trkpt><trkpt lat="40.1010832" lon="9.6871569"><ele>219.99999999999997</ele><time>2026-04-26T11:08:30.728Z</time></trkpt><trkpt lat="40.1011545" lon="9.6871451"><ele>220.0</ele><time>2026-04-26T11:08:36.714Z</time></trkpt><trkpt lat="40.1012018" lon="9.6872098"><ele>220.0</ele><time>2026-04-26T11:08:41.729Z</time></trkpt><trkpt lat="40.1012648" lon="9.6872442"><ele>220.0</ele><time>2026-04-26T11:08:47.73Z</time></trkpt><trkpt lat="40.1013939" lon="9.6873186"><ele>219.99999999999997</ele><time>2026-04-26T11:09:00.728Z</time></trkpt><trkpt lat="40.1014263" lon="9.6872417"><ele>220.0</ele><time>2026-04-26T11:09:06.728Z</time></trkpt><trkpt lat="40.1014449" lon="9.6871624"><ele>220.0</ele><time>2026-04-26T11:09:11.73Z</time></trkpt><trkpt lat="40.1015622" lon="9.6870555"><ele>220.0</ele><time>2026-04-26T11:09:24.73Z</time></trkpt><trkpt lat="40.1016241" lon="9.6870174"><ele>220.0</ele><time>2026-04-26T11:09:31.729Z</time></trkpt><trkpt lat="40.1016924" lon="9.6870412"><ele>220.0</ele><time>2026-04-26T11:09:41.73Z</time></trkpt><trkpt lat="40.1018099" lon="9.6871232"><ele>220.0</ele><time>2026-04-26T11:09:58.713Z</time></trkpt><trkpt lat="40.10188" lon="9.6871417"><ele>213.0</ele><time>2026-04-26T11:10:05.69Z</time></trkpt><trkpt lat="40.1020122" lon="9.6871599"><ele>206.0</ele><time>2026-04-26T11:10:18.674Z</time></trkpt><trkpt lat="40.1020811" lon="9.6871915"><ele>199.0</ele><time>2026-04-26T11:10:25.721Z</time></trkpt><trkpt lat="40.1022005" lon="9.6872226"><ele>192.0</ele><time>2026-04-26T11:10:37.729Z</time></trkpt><trkpt lat="40.1022662" lon="9.687222"><ele>185.0</ele><time>2026-04-26T11:10:43.728Z</time></trkpt><trkpt lat="40.1023286" lon="9.687204"><ele>180.6</ele><time>2026-04-26T11:10:50.639Z</time></trkpt><trkpt lat="40.1024558" lon="9.687229"><ele>176.2</ele><time>2026-04-26T11:11:02.728Z</time></trkpt><trkpt lat="40.1025113" lon="9.6871889"><ele>171.8</ele><time>2026-04-26T11:11:07.729Z</time></trkpt><trkpt lat="40.1025789" lon="9.6871681"><ele>167.4</ele><time>2026-04-26T11:11:13.728Z</time></trkpt><trkpt lat="40.1027117" lon="9.687175"><ele>163.0</ele><time>2026-04-26T11:11:26.695Z</time></trkpt><trkpt lat="40.1027742" lon="9.687216"><ele>163.0</ele><time>2026-04-26T11:11:33.73Z</time></trkpt><trkpt lat="40.1027888" lon="9.6872982"><ele>163.0</ele><time>2026-04-26T11:11:39.728Z</time></trkpt><trkpt lat="40.102829" lon="9.6874598"><ele>163.0</ele><time>2026-04-26T11:11:52.729Z</time></trkpt><trkpt lat="40.1028929" lon="9.6874036"><ele>163.0</ele><time>2026-04-26T11:12:01.729Z</time></trkpt><trkpt lat="40.1030132" lon="9.6873143"><ele>163.0</ele><time>2026-04-26T11:12:14.657Z</time></trkpt><trkpt lat="40.1030587" lon="9.6872507"><ele>163.0</ele><time>2026-04-26T11:12:22.698Z</time></trkpt><trkpt lat="40.1030799" lon="9.6871195"><ele>163.0</ele><time>2026-04-26T11:12:38.74Z</time></trkpt><trkpt lat="40.1031431" lon="9.6871142"><ele>163.0</ele><time>2026-04-26T11:12:47.73Z</time></trkpt><trkpt lat="40.1032482" lon="9.6870397"><ele>163.0</ele><time>2026-04-26T11:13:01.729Z</time></trkpt><trkpt lat="40.1032846" lon="9.6869689"><ele>163.0</ele><time>2026-04-26T11:13:08.729Z</time></trkpt><trkpt lat="40.1033114" lon="9.6867917"><ele>159.16666666666669</ele><time>2026-04-26T11:13:20.654Z</time></trkpt><trkpt lat="40.1033262" lon="9.6867073"><ele>155.33333333333334</ele><time>2026-04-26T11:13:26.729Z</time></trkpt><trkpt lat="40.1033672" lon="9.6866333"><ele>151.5</ele><time>2026-04-26T11:13:32.728Z</time></trkpt><trkpt lat="40.1034913" lon="9.6866662"><ele>147.66666666666666</ele><time>2026-04-26T11:13:44.729Z</time></trkpt><trkpt lat="40.1035143" lon="9.6867453"><ele>143.83333333333331</ele><time>2026-04-26T11:13:50.728Z</time></trkpt><trkpt lat="40.1035372" lon="9.686825"><ele>140.0</ele><time>2026-04-26T11:13:57.728Z</time></trkpt><trkpt lat="40.1036182" lon="9.6869557"><ele>140.0</ele><time>2026-04-26T11:14:09.594Z</time></trkpt><trkpt lat="40.1036638" lon="9.687024"><ele>140.0</ele><time>2026-04-26T11:14:15.594Z</time></trkpt><trkpt lat="40.1037192" lon="9.6870738"><ele>140.0</ele><time>2026-04-26T11:14:21.633Z</time></trkpt><trkpt lat="40.1038488" lon="9.6871276"><ele>140.0</ele><time>2026-04-26T11:14:34.673Z</time></trkpt><trkpt lat="40.1039102" lon="9.6871709"><ele>140.0</ele><time>2026-04-26T11:14:42.729Z</time></trkpt><trkpt lat="40.103949" lon="9.687338"><ele>140.0</ele><time>2026-04-26T11:14:58.728Z</time></trkpt><trkpt lat="40.1039022" lon="9.6874008"><ele>140.0</ele><time>2026-04-26T11:15:06.729Z</time></trkpt><trkpt lat="40.1038385" lon="9.6875405"><ele>140.0</ele><time>2026-04-26T11:15:22.728Z</time></trkpt><trkpt lat="40.1038535" lon="9.6876206"><ele>140.0</ele><time>2026-04-26T11:15:28.728Z</time></trkpt><trkpt lat="40.1038164" lon="9.6877862"><ele>140.0</ele><time>2026-04-26T11:15:43.729Z</time></trkpt><trkpt lat="40.1038877" lon="9.6878166"><ele>137.5</ele><time>2026-04-26T11:15:49.73Z</time></trkpt><trkpt lat="40.1040057" lon="9.6878702"><ele>135.0</ele><time>2026-04-26T11:16:03.729Z</time></trkpt><trkpt lat="40.1039815" lon="9.6879574"><ele>132.5</ele><time>2026-04-26T11:16:09.729Z</time></trkpt><trkpt lat="40.1040353" lon="9.6880155"><ele>130.0</ele><time>2026-04-26T11:16:19.728Z</time></trkpt><trkpt lat="40.1040543" lon="9.6881563"><ele>127.49999999999999</ele><time>2026-04-26T11:16:32.73Z</time></trkpt><trkpt lat="40.1041178" lon="9.6881977"><ele>125.0</ele><time>2026-04-26T11:16:39.729Z</time></trkpt><trkpt lat="40.1041484" lon="9.6882827"><ele>119.4</ele><time>2026-04-26T11:16:46.729Z</time></trkpt><trkpt lat="40.1041805" lon="9.6884447"><ele>113.8</ele><time>2026-04-26T11:16:58.729Z</time></trkpt><trkpt lat="40.1042535" lon="9.6884233"><ele>108.19999999999999</ele><time>2026-04-26T11:17:04.74Z</time></trkpt><trkpt lat="40.1043137" lon="9.6884503"><ele>102.6</ele><time>2026-04-26T11:17:11.729Z</time></trkpt><trkpt lat="40.1044402" lon="9.6884741"><ele>97.0</ele><time>2026-04-26T11:17:29.73Z</time></trkpt><trkpt lat="40.1045055" lon="9.6884992"><ele>97.0</ele><time>2026-04-26T11:17:37.729Z</time></trkpt><trkpt lat="40.1046353" lon="9.6885377"><ele>97.0</ele><time>2026-04-26T11:17:55.67Z</time></trkpt><trkpt lat="40.1046824" lon="9.6886025"><ele>97.0</ele><time>2026-04-26T11:18:03.695Z</time></trkpt><trkpt lat="40.1047957" lon="9.6887071"><ele>97.0</ele><time>2026-04-26T11:18:18.697Z</time></trkpt><trkpt lat="40.104861" lon="9.6887418"><ele>97.0</ele><time>2026-04-26T11:18:25.729Z</time></trkpt><trkpt lat="40.1048831" lon="9.6889062"><ele>91.8</ele><time>2026-04-26T11:18:40.73Z</time></trkpt><trkpt lat="40.104949" lon="9.6889295"><ele>86.6</ele><time>2026-04-26T11:18:46.729Z</time></trkpt><trkpt lat="40.1050592" lon="9.6890201"><ele>81.39999999999999</ele><time>2026-04-26T11:19:01.556Z</time></trkpt><trkpt lat="40.1050832" lon="9.6890982"><ele>76.19999999999999</ele><time>2026-04-26T11:19:07.729Z</time></trkpt><trkpt lat="40.1051595" lon="9.6892576"><ele>71.0</ele><time>2026-04-26T11:19:19.728Z</time></trkpt><trkpt lat="40.1052137" lon="9.6893176"><ele>71.0</ele><time>2026-04-26T11:19:25.729Z</time></trkpt><trkpt lat="40.1052758" lon="9.6893679"><ele>71.0</ele><time>2026-04-26T11:19:31.729Z</time></trkpt><trkpt lat="40.1053943" lon="9.6894782"><ele>71.0</ele><time>2026-04-26T11:19:43.729Z</time></trkpt><trkpt lat="40.105443" lon="9.6895351"><ele>71.0</ele><time>2026-04-26T11:19:48.729Z</time></trkpt><trkpt lat="40.1055097" lon="9.6895803"><ele>71.0</ele><time>2026-04-26T11:19:54.73Z</time></trkpt><trkpt lat="40.1056398" lon="9.6896744"><ele>68.66666666666667</ele><time>2026-04-26T11:20:06.712Z</time></trkpt><trkpt lat="40.1057084" lon="9.6897189"><ele>66.33333333333334</ele><time>2026-04-26T11:20:12.729Z</time></trkpt><trkpt lat="40.1057707" lon="9.6897722"><ele>64.0</ele><time>2026-04-26T11:20:18.729Z</time></trkpt><trkpt lat="40.1058866" lon="9.6898559"><ele>61.66666666666667</ele><time>2026-04-26T11:20:31.737Z</time></trkpt><trkpt lat="40.1059556" lon="9.6898606"><ele>59.333333333333336</ele><time>2026-04-26T11:20:38.728Z</time></trkpt><trkpt lat="40.1060146" lon="9.6899138"><ele>57.0</ele><time>2026-04-26T11:20:44.729Z</time></trkpt><trkpt lat="40.1061038" lon="9.6900481"><ele>57.0</ele><time>2026-04-26T11:20:54.729Z</time></trkpt><trkpt lat="40.1061636" lon="9.6900757"><ele>57.0</ele><time>2026-04-26T11:21:00.728Z</time></trkpt><trkpt lat="40.1062229" lon="9.6901037"><ele>57.0</ele><time>2026-04-26T11:21:05.729Z</time></trkpt><trkpt lat="40.1063617" lon="9.6901171"><ele>57.0</ele><time>2026-04-26T11:21:17.727Z</time></trkpt><trkpt lat="40.106432" lon="9.6901092"><ele>57.0</ele><time>2026-04-26T11:21:24.728Z</time></trkpt><trkpt lat="40.1064985" lon="9.6900922"><ele>57.0</ele><time>2026-04-26T11:21:33.727Z</time></trkpt><trkpt lat="40.1066363" lon="9.6900676"><ele>56.400000000000006</ele><time>2026-04-26T11:21:47.728Z</time></trkpt><trkpt lat="40.1067018" lon="9.6901032"><ele>55.800000000000004</ele><time>2026-04-26T11:21:54.728Z</time></trkpt><trkpt lat="40.1068092" lon="9.6900723"><ele>55.2</ele><time>2026-04-26T11:22:10.729Z</time></trkpt><trkpt lat="40.1068495" lon="9.6899955"><ele>54.6</ele><time>2026-04-26T11:22:16.63Z</time></trkpt><trkpt lat="40.1069487" lon="9.6898734"><ele>54.0</ele><time>2026-04-26T11:22:29.727Z</time></trkpt><trkpt lat="40.1070004" lon="9.6898072"><ele>54.0</ele><time>2026-04-26T11:22:35.727Z</time></trkpt><trkpt lat="40.1070663" lon="9.689795"><ele>54.00000000000001</ele><time>2026-04-26T11:22:41.729Z</time></trkpt><trkpt lat="40.1071887" lon="9.6898523"><ele>54.00000000000001</ele><time>2026-04-26T11:23:15.639Z</time></trkpt><trkpt lat="40.1073203" lon="9.6898099"><ele>54.0</ele><time>2026-04-26T11:23:27.558Z</time></trkpt><trkpt lat="40.107386" lon="9.6897948"><ele>54.0</ele><time>2026-04-26T11:23:33.43Z</time></trkpt><trkpt lat="40.1074525" lon="9.689779"><ele>50.666666666666664</ele><time>2026-04-26T11:23:38.931Z</time></trkpt><trkpt lat="40.1075612" lon="9.6896753"><ele>47.333333333333336</ele><time>2026-04-26T11:23:51.733Z</time></trkpt><trkpt lat="40.107629" lon="9.6896993"><ele>44.0</ele><time>2026-04-26T11:23:58.728Z</time></trkpt><trkpt lat="40.1076434" lon="9.6896157"><ele>40.66666666666667</ele><time>2026-04-26T11:25:09.729Z</time></trkpt><trkpt lat="40.1077397" lon="9.6897049"><ele>37.333333333333336</ele><time>2026-04-26T11:25:36.728Z</time></trkpt><trkpt lat="40.1077655" lon="9.6897672"><ele>34.0</ele><time>2026-04-26T11:26:01.728Z</time></trkpt><trkpt lat="40.1078562" lon="9.6897407"><ele>34.0</ele><time>2026-04-26T11:27:16.728Z</time></trkpt></trkseg><trkseg><trkpt lat="40.1078047" lon="9.6896518"><ele>34.0</ele><time>2026-04-26T14:05:48.603Z</time></trkpt><trkpt lat="40.1078067" lon="9.6895677"><ele>34.0</ele><time>2026-04-26T14:05:58.696Z</time></trkpt><trkpt lat="40.1075342" lon="9.6896273"><ele>34.0</ele><time>2026-04-26T14:07:25.644Z</time></trkpt><trkpt lat="40.1074951" lon="9.689695"><ele>34.0</ele><time>2026-04-26T14:07:34.695Z</time></trkpt><trkpt lat="40.1074354" lon="9.6898226"><ele>34.0</ele><time>2026-04-26T14:08:07.696Z</time></trkpt><trkpt lat="40.107546" lon="9.6898948"><ele>34.0</ele><time>2026-04-26T14:08:21.695Z</time></trkpt><trkpt lat="40.1076074" lon="9.6899349"><ele>34.0</ele><time>2026-04-26T14:08:30.707Z</time></trkpt><trkpt lat="40.1076477" lon="9.6900991"><ele>34.0</ele><time>2026-04-26T14:08:45.695Z</time></trkpt><trkpt lat="40.1076868" lon="9.6901655"><ele>34.0</ele><time>2026-04-26T14:08:53.695Z</time></trkpt><trkpt lat="40.1077468" lon="9.6903201"><ele>39.0</ele><time>2026-04-26T14:09:07.696Z</time></trkpt><trkpt lat="40.1077983" lon="9.690371"><ele>44.0</ele><time>2026-04-26T14:09:14.694Z</time></trkpt><trkpt lat="40.1078967" lon="9.6904915"><ele>49.00000000000001</ele><time>2026-04-26T14:09:40.666Z</time></trkpt><trkpt lat="40.1079954" lon="9.6906132"><ele>54.0</ele><time>2026-04-26T14:09:54.695Z</time></trkpt><trkpt lat="40.1080295" lon="9.6906944"><ele>59.0</ele><time>2026-04-26T14:10:01.695Z</time></trkpt><trkpt lat="40.1080929" lon="9.6908251"><ele>59.0</ele><time>2026-04-26T14:10:16.694Z</time></trkpt><trkpt lat="40.1081193" lon="9.6909006"><ele>59.00000000000001</ele><time>2026-04-26T14:10:26.687Z</time></trkpt><trkpt lat="40.1082274" lon="9.6909944"><ele>59.00000000000001</ele><time>2026-04-26T14:11:24.696Z</time></trkpt><trkpt lat="40.1081993" lon="9.6911607"><ele>59.0</ele><time>2026-04-26T14:11:50.696Z</time></trkpt><trkpt lat="40.1082887" lon="9.691246"><ele>59.0</ele><time>2026-04-26T14:12:23.695Z</time></trkpt><trkpt lat="40.1084331" lon="9.6912574"><ele>59.0</ele><time>2026-04-26T14:12:55.695Z</time></trkpt><trkpt lat="40.1082625" lon="9.6912132"><ele>59.0</ele><time>2026-04-26T14:22:18.694Z</time></trkpt><trkpt lat="40.1081876" lon="9.6910847"><ele>59.0</ele><time>2026-04-26T14:22:49.694Z</time></trkpt><trkpt lat="40.1081205" lon="9.6907746"><ele>59.0</ele><time>2026-04-26T14:23:49.704Z</time></trkpt><trkpt lat="40.1080665" lon="9.6907247"><ele>59.00000000000001</ele><time>2026-04-26T14:23:57.694Z</time></trkpt><trkpt lat="40.1080012" lon="9.6905718"><ele>59.00000000000001</ele><time>2026-04-26T14:24:10.694Z</time></trkpt><trkpt lat="40.1079483" lon="9.6905201"><ele>59.0</ele><time>2026-04-26T14:24:16.695Z</time></trkpt><trkpt lat="40.1079024" lon="9.6904609"><ele>59.0</ele><time>2026-04-26T14:24:24.677Z</time></trkpt><trkpt lat="40.107799" lon="9.6903438"><ele>59.0</ele><time>2026-04-26T14:24:39.694Z</time></trkpt><trkpt lat="40.1077546" lon="9.6902803"><ele>59.00000000000001</ele><time>2026-04-26T14:24:47.678Z</time></trkpt><trkpt lat="40.1076883" lon="9.6901381"><ele>59.00000000000001</ele><time>2026-04-26T14:25:00.633Z</time></trkpt><trkpt lat="40.1076557" lon="9.690062"><ele>59.0</ele><time>2026-04-26T14:25:06.694Z</time></trkpt><trkpt lat="40.1076266" lon="9.6899824"><ele>59.0</ele><time>2026-04-26T14:25:13.694Z</time></trkpt><trkpt lat="40.1075078" lon="9.6899173"><ele>58.0</ele><time>2026-04-26T14:25:24.694Z</time></trkpt><trkpt lat="40.107449" lon="9.6898752"><ele>57.00000000000001</ele><time>2026-04-26T14:25:31.694Z</time></trkpt><trkpt lat="40.1074733" lon="9.6899727"><ele>56.00000000000001</ele><time>2026-04-26T14:26:06.694Z</time></trkpt><trkpt lat="40.1073791" lon="9.6898518"><ele>55.0</ele><time>2026-04-26T14:26:18.694Z</time></trkpt><trkpt lat="40.1073318" lon="9.6897955"><ele>54.0</ele><time>2026-04-26T14:26:45.694Z</time></trkpt><trkpt lat="40.1072499" lon="9.689935"><ele>54.0</ele><time>2026-04-26T14:27:00.694Z</time></trkpt><trkpt lat="40.1072012" lon="9.6899895"><ele>54.0</ele><time>2026-04-26T14:27:08.693Z</time></trkpt><trkpt lat="40.1072169" lon="9.6901731"><ele>54.0</ele><time>2026-04-26T14:28:09.694Z</time></trkpt><trkpt lat="40.1072674" lon="9.689944"><ele>54.0</ele><time>2026-04-26T14:30:00.692Z</time></trkpt><trkpt lat="40.1072694" lon="9.6898558"><ele>54.0</ele><time>2026-04-26T14:30:09.694Z</time></trkpt><trkpt lat="40.1071351" lon="9.689851"><ele>54.00000000000001</ele><time>2026-04-26T14:30:26.693Z</time></trkpt><trkpt lat="40.1070655" lon="9.6898705"><ele>54.00000000000001</ele><time>2026-04-26T14:30:32.665Z</time></trkpt><trkpt lat="40.1069549" lon="9.6899714"><ele>54.0</ele><time>2026-04-26T14:30:47.693Z</time></trkpt><trkpt lat="40.1068874" lon="9.6900083"><ele>54.0</ele><time>2026-04-26T14:30:54.693Z</time></trkpt><trkpt lat="40.1067623" lon="9.6900738"><ele>54.0</ele><time>2026-04-26T14:31:06.694Z</time></trkpt><trkpt lat="40.1066977" lon="9.6900919"><ele>54.00000000000001</ele><time>2026-04-26T14:31:12.694Z</time></trkpt><trkpt lat="40.1066413" lon="9.6900548"><ele>54.00000000000001</ele><time>2026-04-26T14:31:18.693Z</time></trkpt><trkpt lat="40.106506" lon="9.6900741"><ele>54.0</ele><time>2026-04-26T14:31:32.693Z</time></trkpt><trkpt lat="40.1064459" lon="9.6901147"><ele>54.0</ele><time>2026-04-26T14:31:39.692Z</time></trkpt><trkpt lat="40.1063147" lon="9.6901369"><ele>54.6</ele><time>2026-04-26T14:31:53.702Z</time></trkpt><trkpt lat="40.1062507" lon="9.6901191"><ele>55.2</ele><time>2026-04-26T14:32:01.615Z</time></trkpt><trkpt lat="40.1061287" lon="9.6900475"><ele>55.800000000000004</ele><time>2026-04-26T14:32:15.692Z</time></trkpt><trkpt lat="40.1060916" lon="9.6899673"><ele>56.400000000000006</ele><time>2026-04-26T14:32:21.693Z</time></trkpt><trkpt lat="40.1059911" lon="9.6898461"><ele>57.0</ele><time>2026-04-26T14:32:33.694Z</time></trkpt><trkpt lat="40.1059184" lon="9.6898294"><ele>57.0</ele><time>2026-04-26T14:32:39.6Z</time></trkpt><trkpt lat="40.1058659" lon="9.6897786"><ele>57.0</ele><time>2026-04-26T14:32:44.693Z</time></trkpt><trkpt lat="40.1057334" lon="9.6897219"><ele>57.0</ele><time>2026-04-26T14:32:55.693Z</time></trkpt><trkpt lat="40.1056745" lon="9.6896794"><ele>57.0</ele><time>2026-04-26T14:33:00.615Z</time></trkpt><trkpt lat="40.1056153" lon="9.6896366"><ele>57.0</ele><time>2026-04-26T14:33:06.697Z</time></trkpt><trkpt lat="40.1055041" lon="9.6895481"><ele>59.333333333333336</ele><time>2026-04-26T14:33:17.687Z</time></trkpt><trkpt lat="40.1054783" lon="9.6894589"><ele>61.66666666666667</ele><time>2026-04-26T14:33:22.687Z</time></trkpt><trkpt lat="40.1054278" lon="9.689401"><ele>64.0</ele><time>2026-04-26T14:33:28.687Z</time></trkpt><trkpt lat="40.1053127" lon="9.6892829"><ele>66.33333333333334</ele><time>2026-04-26T14:33:40.687Z</time></trkpt><trkpt lat="40.1052496" lon="9.6892358"><ele>68.66666666666667</ele><time>2026-04-26T14:33:47.687Z</time></trkpt><trkpt lat="40.105206" lon="9.6891579"><ele>71.0</ele><time>2026-04-26T14:33:54.688Z</time></trkpt><trkpt lat="40.1051237" lon="9.6890012"><ele>71.0</ele><time>2026-04-26T14:34:06.688Z</time></trkpt><trkpt lat="40.1050772" lon="9.6889271"><ele>71.0</ele><time>2026-04-26T14:34:12.663Z</time></trkpt><trkpt lat="40.1050213" lon="9.6888694"><ele>71.0</ele><time>2026-04-26T14:34:18.688Z</time></trkpt><trkpt lat="40.1048918" lon="9.6887952"><ele>71.0</ele><time>2026-04-26T14:34:31.665Z</time></trkpt><trkpt lat="40.1048667" lon="9.6887109"><ele>71.0</ele><time>2026-04-26T14:34:37.687Z</time></trkpt><trkpt lat="40.1048527" lon="9.6886285"><ele>71.0</ele><time>2026-04-26T14:34:43.657Z</time></trkpt><trkpt lat="40.1047451" lon="9.6885245"><ele>76.19999999999999</ele><time>2026-04-26T14:34:56.688Z</time></trkpt><trkpt lat="40.1046792" lon="9.6884828"><ele>81.39999999999999</ele><time>2026-04-26T14:35:03.687Z</time></trkpt><trkpt lat="40.1045543" lon="9.6884136"><ele>86.6</ele><time>2026-04-26T14:35:16.687Z</time></trkpt><trkpt lat="40.1044853" lon="9.6884237"><ele>91.8</ele><time>2026-04-26T14:35:23.687Z</time></trkpt><trkpt lat="40.1044213" lon="9.6884531"><ele>97.0</ele><time>2026-04-26T14:35:30.687Z</time></trkpt><trkpt lat="40.104294" lon="9.6884259"><ele>97.00000000000001</ele><time>2026-04-26T14:35:49.688Z</time></trkpt><trkpt lat="40.1042394" lon="9.6883794"><ele>97.0</ele><time>2026-04-26T14:36:00.687Z</time></trkpt><trkpt lat="40.1041444" lon="9.6883447"><ele>97.0</ele><time>2026-04-26T14:36:17.688Z</time></trkpt><trkpt lat="40.1041698" lon="9.6882681"><ele>97.0</ele><time>2026-04-26T14:36:22.639Z</time></trkpt><trkpt lat="40.1041108" lon="9.6881265"><ele>97.00000000000001</ele><time>2026-04-26T14:36:35.595Z</time></trkpt><trkpt lat="40.1041172" lon="9.6880389"><ele>97.0</ele><time>2026-04-26T14:36:42.687Z</time></trkpt><trkpt lat="40.1040536" lon="9.6878918"><ele>101.66666666666667</ele><time>2026-04-26T14:36:57.636Z</time></trkpt><trkpt lat="40.1039939" lon="9.6878475"><ele>106.33333333333334</ele><time>2026-04-26T14:37:04.687Z</time></trkpt><trkpt lat="40.1039318" lon="9.6877071"><ele>111.0</ele><time>2026-04-26T14:37:18.687Z</time></trkpt><trkpt lat="40.1038702" lon="9.6876735"><ele>115.66666666666666</ele><time>2026-04-26T14:37:25.656Z</time></trkpt><trkpt lat="40.1039002" lon="9.6875261"><ele>120.33333333333333</ele><time>2026-04-26T14:37:40.687Z</time></trkpt><trkpt lat="40.1039086" lon="9.6874392"><ele>125.0</ele><time>2026-04-26T14:37:48.687Z</time></trkpt><trkpt lat="40.1040007" lon="9.6873121"><ele>128.0</ele><time>2026-04-26T14:38:05.676Z</time></trkpt><trkpt lat="40.1040358" lon="9.6872395"><ele>131.0</ele><time>2026-04-26T14:38:12.687Z</time></trkpt><trkpt lat="40.103983" lon="9.6870859"><ele>134.0</ele><time>2026-04-26T14:38:28.687Z</time></trkpt><trkpt lat="40.1039199" lon="9.6870686"><ele>137.0</ele><time>2026-04-26T14:38:36.688Z</time></trkpt><trkpt lat="40.1037889" lon="9.6870028"><ele>140.0</ele><time>2026-04-26T14:38:51.597Z</time></trkpt><trkpt lat="40.1037352" lon="9.6869523"><ele>139.8</ele><time>2026-04-26T14:38:58.688Z</time></trkpt><trkpt lat="40.1036664" lon="9.6868186"><ele>139.6</ele><time>2026-04-26T14:39:13.688Z</time></trkpt><trkpt lat="40.1036293" lon="9.68674"><ele>139.4</ele><time>2026-04-26T14:39:21.638Z</time></trkpt><trkpt lat="40.1035517" lon="9.6865952"><ele>139.2</ele><time>2026-04-26T14:39:35.688Z</time></trkpt><trkpt lat="40.103509" lon="9.6865343"><ele>139.0</ele><time>2026-04-26T14:39:41.687Z</time></trkpt><trkpt lat="40.1033836" lon="9.6865962"><ele>139.0</ele><time>2026-04-26T14:39:54.68Z</time></trkpt><trkpt lat="40.1033538" lon="9.6866703"><ele>139.0</ele><time>2026-04-26T14:40:00.687Z</time></trkpt><trkpt lat="40.1033365" lon="9.6867507"><ele>139.0</ele><time>2026-04-26T14:40:06.688Z</time></trkpt><trkpt lat="40.103303" lon="9.6869315"><ele>139.0</ele><time>2026-04-26T14:40:20.687Z</time></trkpt><trkpt lat="40.103264" lon="9.6870058"><ele>139.0</ele><time>2026-04-26T14:40:27.655Z</time></trkpt><trkpt lat="40.1031821" lon="9.6871174"><ele>143.8</ele><time>2026-04-26T14:40:40.688Z</time></trkpt><trkpt lat="40.1031225" lon="9.6870668"><ele>148.60000000000002</ele><time>2026-04-26T14:40:57.687Z</time></trkpt><trkpt lat="40.1030526" lon="9.6872098"><ele>153.4</ele><time>2026-04-26T14:41:13.687Z</time></trkpt><trkpt lat="40.1030025" lon="9.6872752"><ele>158.20000000000002</ele><time>2026-04-26T14:41:21.688Z</time></trkpt><trkpt lat="40.1028817" lon="9.6873452"><ele>163.0</ele><time>2026-04-26T14:41:35.687Z</time></trkpt><trkpt lat="40.1028209" lon="9.68737"><ele>163.0</ele><time>2026-04-26T14:41:43.687Z</time></trkpt><trkpt lat="40.1028079" lon="9.6872025"><ele>163.0</ele><time>2026-04-26T14:41:58.687Z</time></trkpt><trkpt lat="40.1027714" lon="9.6871328"><ele>163.0</ele><time>2026-04-26T14:42:07.687Z</time></trkpt><trkpt lat="40.1026367" lon="9.6871258"><ele>163.0</ele><time>2026-04-26T14:42:21.687Z</time></trkpt><trkpt lat="40.1025704" lon="9.6871473"><ele>163.0</ele><time>2026-04-26T14:42:28.633Z</time></trkpt><trkpt lat="40.1024379" lon="9.6871505"><ele>167.4</ele><time>2026-04-26T14:42:43.653Z</time></trkpt><trkpt lat="40.1023682" lon="9.6871394"><ele>171.8</ele><time>2026-04-26T14:42:51.687Z</time></trkpt><trkpt lat="40.1022275" lon="9.6871414"><ele>176.2</ele><time>2026-04-26T14:43:06.687Z</time></trkpt><trkpt lat="40.1021635" lon="9.6871595"><ele>180.6</ele><time>2026-04-26T14:43:14.64Z</time></trkpt><trkpt lat="40.1020345" lon="9.6871003"><ele>185.0</ele><time>2026-04-26T14:43:29.687Z</time></trkpt><trkpt lat="40.1019691" lon="9.6870875"><ele>185.0</ele><time>2026-04-26T14:43:37.687Z</time></trkpt><trkpt lat="40.1018311" lon="9.687056"><ele>185.0</ele><time>2026-04-26T14:43:51.687Z</time></trkpt><trkpt lat="40.1017805" lon="9.6870011"><ele>185.0</ele><time>2026-04-26T14:43:57.687Z</time></trkpt><trkpt lat="40.1017276" lon="9.6869497"><ele>185.0</ele><time>2026-04-26T14:44:04.687Z</time></trkpt><trkpt lat="40.1016088" lon="9.6869579"><ele>185.0</ele><time>2026-04-26T14:44:18.687Z</time></trkpt><trkpt lat="40.1015648" lon="9.6870309"><ele>192.0</ele><time>2026-04-26T14:44:25.687Z</time></trkpt><trkpt lat="40.1014781" lon="9.6871515"><ele>199.0</ele><time>2026-04-26T14:44:38.687Z</time></trkpt><trkpt lat="40.1014355" lon="9.6872171"><ele>206.0</ele><time>2026-04-26T14:44:46.687Z</time></trkpt><trkpt lat="40.1013113" lon="9.6872082"><ele>213.0</ele><time>2026-04-26T14:45:02.687Z</time></trkpt><trkpt lat="40.1012481" lon="9.6871971"><ele>220.0</ele><time>2026-04-26T14:45:09.687Z</time></trkpt><trkpt lat="40.1011221" lon="9.6871469"><ele>219.99999999999997</ele><time>2026-04-26T14:45:26.688Z</time></trkpt><trkpt lat="40.1010526" lon="9.6871452"><ele>220.0</ele><time>2026-04-26T14:45:34.688Z</time></trkpt><trkpt lat="40.1010531" lon="9.6869723"><ele>220.0</ele><time>2026-04-26T14:45:53.688Z</time></trkpt><trkpt lat="40.101084" lon="9.68689"><ele>220.0</ele><time>2026-04-26T14:46:02.687Z</time></trkpt><trkpt lat="40.100992" lon="9.6868429"><ele>219.99999999999997</ele><time>2026-04-26T14:46:21.688Z</time></trkpt><trkpt lat="40.1009275" lon="9.686818"><ele>220.0</ele><time>2026-04-26T14:46:28.7Z</time></trkpt><trkpt lat="40.1008916" lon="9.6867458"><ele>218.66666666666666</ele><time>2026-04-26T14:46:48.687Z</time></trkpt><trkpt lat="40.1008529" lon="9.6868261"><ele>217.33333333333331</ele><time>2026-04-26T14:46:54.687Z</time></trkpt><trkpt lat="40.1007359" lon="9.6868286"><ele>216.0</ele><time>2026-04-26T14:47:09.687Z</time></trkpt><trkpt lat="40.1007043" lon="9.6867496"><ele>214.66666666666669</ele><time>2026-04-26T14:47:19.687Z</time></trkpt><trkpt lat="40.1006679" lon="9.6866419"><ele>213.33333333333334</ele><time>2026-04-26T14:47:35.687Z</time></trkpt><trkpt lat="40.1006026" lon="9.6866798"><ele>212.0</ele><time>2026-04-26T14:47:43.687Z</time></trkpt><trkpt lat="40.1004772" lon="9.6867215"><ele>215.83333333333334</ele><time>2026-04-26T14:47:59.687Z</time></trkpt><trkpt lat="40.1004785" lon="9.6868078"><ele>219.66666666666669</ele><time>2026-04-26T14:48:08.687Z</time></trkpt><trkpt lat="40.1003658" lon="9.6867515"><ele>223.5</ele><time>2026-04-26T14:48:21.639Z</time></trkpt><trkpt lat="40.1003053" lon="9.6867282"><ele>227.33333333333331</ele><time>2026-04-26T14:48:30.687Z</time></trkpt><trkpt lat="40.1001733" lon="9.68671"><ele>231.16666666666666</ele><time>2026-04-26T14:48:47.687Z</time></trkpt><trkpt lat="40.1001091" lon="9.6867294"><ele>235.0</ele><time>2026-04-26T14:48:58.687Z</time></trkpt><trkpt lat="40.0999952" lon="9.6867368"><ele>235.0</ele><time>2026-04-26T14:49:17.687Z</time></trkpt><trkpt lat="40.0999349" lon="9.6867123"><ele>235.0</ele><time>2026-04-26T14:49:24.688Z</time></trkpt><trkpt lat="40.0998167" lon="9.6866383"><ele>235.0</ele><time>2026-04-26T14:49:39.687Z</time></trkpt><trkpt lat="40.0997678" lon="9.6865757"><ele>235.0</ele><time>2026-04-26T14:49:45.688Z</time></trkpt><trkpt lat="40.0996499" lon="9.68649"><ele>235.0</ele><time>2026-04-26T14:49:57.687Z</time></trkpt><trkpt lat="40.0995816" lon="9.6864831"><ele>237.0</ele><time>2026-04-26T14:50:04.687Z</time></trkpt><trkpt lat="40.0995144" lon="9.6864777"><ele>239.0</ele><time>2026-04-26T14:50:11.687Z</time></trkpt><trkpt lat="40.0993757" lon="9.6865127"><ele>241.0</ele><time>2026-04-26T14:50:25.688Z</time></trkpt><trkpt lat="40.0993252" lon="9.6865629"><ele>243.0</ele><time>2026-04-26T14:50:31.688Z</time></trkpt><trkpt lat="40.0992623" lon="9.6865815"><ele>245.0</ele><time>2026-04-26T14:50:36.687Z</time></trkpt><trkpt lat="40.0991261" lon="9.6865221"><ele>247.00000000000003</ele><time>2026-04-26T14:50:48.687Z</time></trkpt><trkpt lat="40.0990626" lon="9.6865238"><ele>249.0</ele><time>2026-04-26T14:50:54.687Z</time></trkpt><trkpt lat="40.0990097" lon="9.6865704"><ele>251.0</ele><time>2026-04-26T14:51:00.688Z</time></trkpt><trkpt lat="40.098876" lon="9.6865916"><ele>253.0</ele><time>2026-04-26T14:51:13.688Z</time></trkpt><trkpt lat="40.098812" lon="9.6865808"><ele>255.00000000000003</ele><time>2026-04-26T14:51:19.618Z</time></trkpt><trkpt lat="40.0987489" lon="9.6865784"><ele>257.0</ele><time>2026-04-26T14:51:26.597Z</time></trkpt><trkpt lat="40.0986156" lon="9.6865014"><ele>257.0</ele><time>2026-04-26T14:51:39.687Z</time></trkpt><trkpt lat="40.0985509" lon="9.6864981"><ele>257.0</ele><time>2026-04-26T14:51:45.687Z</time></trkpt><trkpt lat="40.0984797" lon="9.6864862"><ele>257.0</ele><time>2026-04-26T14:51:52.687Z</time></trkpt><trkpt lat="40.0983542" lon="9.6864387"><ele>257.0</ele><time>2026-04-26T14:52:04.688Z</time></trkpt><trkpt lat="40.0983077" lon="9.6863718"><ele>257.0</ele><time>2026-04-26T14:52:10.657Z</time></trkpt><trkpt lat="40.0982458" lon="9.6863296"><ele>257.0</ele><time>2026-04-26T14:52:16.687Z</time></trkpt><trkpt lat="40.0981096" lon="9.6863027"><ele>260.6</ele><time>2026-04-26T14:52:28.688Z</time></trkpt><trkpt lat="40.0980565" lon="9.6862541"><ele>264.2</ele><time>2026-04-26T14:52:34.687Z</time></trkpt><trkpt lat="40.0979876" lon="9.6862569"><ele>267.8</ele><time>2026-04-26T14:52:41.687Z</time></trkpt><trkpt lat="40.0978549" lon="9.6862381"><ele>271.4</ele><time>2026-04-26T14:52:56.699Z</time></trkpt><trkpt lat="40.0977873" lon="9.686208"><ele>275.0</ele><time>2026-04-26T14:53:03.687Z</time></trkpt><trkpt lat="40.0976569" lon="9.6861555"><ele>274.6</ele><time>2026-04-26T14:53:16.687Z</time></trkpt><trkpt lat="40.097567" lon="9.6860888"><ele>274.2</ele><time>2026-04-26T14:53:46.699Z</time></trkpt><trkpt lat="40.0974581" lon="9.6859958"><ele>273.8</ele><time>2026-04-26T14:53:57.687Z</time></trkpt><trkpt lat="40.0973847" lon="9.6860053"><ele>273.4</ele><time>2026-04-26T14:54:03.687Z</time></trkpt><trkpt lat="40.09732" lon="9.6859793"><ele>273.0</ele><time>2026-04-26T14:54:09.688Z</time></trkpt><trkpt lat="40.0971939" lon="9.6859574"><ele>273.0</ele><time>2026-04-26T14:54:21.688Z</time></trkpt><trkpt lat="40.0971359" lon="9.6859127"><ele>273.0</ele><time>2026-04-26T14:54:27.687Z</time></trkpt><trkpt lat="40.0970954" lon="9.685843"><ele>273.0</ele><time>2026-04-26T14:54:33.687Z</time></trkpt><trkpt lat="40.0969741" lon="9.6857589"><ele>273.0</ele><time>2026-04-26T14:54:46.687Z</time></trkpt><trkpt lat="40.0969091" lon="9.6857412"><ele>273.0</ele><time>2026-04-26T14:54:52.687Z</time></trkpt><trkpt lat="40.0968397" lon="9.6857137"><ele>273.0</ele><time>2026-04-26T14:54:59.642Z</time></trkpt><trkpt lat="40.0967403" lon="9.6856181"><ele>273.0</ele><time>2026-04-26T14:55:12.687Z</time></trkpt><trkpt lat="40.0966919" lon="9.6855632"><ele>273.0</ele><time>2026-04-26T14:55:18.687Z</time></trkpt><trkpt lat="40.0966208" lon="9.6855382"><ele>273.0</ele><time>2026-04-26T14:55:25.687Z</time></trkpt><trkpt lat="40.0964817" lon="9.6855064"><ele>273.0</ele><time>2026-04-26T14:55:37.687Z</time></trkpt><trkpt lat="40.0964181" lon="9.6855099"><ele>273.0</ele><time>2026-04-26T14:55:42.656Z</time></trkpt><trkpt lat="40.0963436" lon="9.685496"><ele>273.0</ele><time>2026-04-26T14:55:48.687Z</time></trkpt><trkpt lat="40.0962216" lon="9.6854097"><ele>277.75</ele><time>2026-04-26T14:56:01.658Z</time></trkpt><trkpt lat="40.0961835" lon="9.6853379"><ele>282.5</ele><time>2026-04-26T14:56:09.619Z</time></trkpt><trkpt lat="40.0959291" lon="9.6851698"><ele>287.25</ele><time>2026-04-26T14:58:22.688Z</time></trkpt><trkpt lat="40.0958676" lon="9.6851885"><ele>292.0</ele><time>2026-04-26T14:58:33.413Z</time></trkpt><trkpt lat="40.0957338" lon="9.6851702"><ele>293.6</ele><time>2026-04-26T14:58:48.687Z</time></trkpt><trkpt lat="40.0956664" lon="9.6851535"><ele>295.2</ele><time>2026-04-26T14:58:55.687Z</time></trkpt><trkpt lat="40.0955373" lon="9.6851316"><ele>296.8</ele><time>2026-04-26T14:59:10.687Z</time></trkpt><trkpt lat="40.0954739" lon="9.6851281"><ele>298.4</ele><time>2026-04-26T14:59:17.622Z</time></trkpt><trkpt lat="40.0953583" lon="9.6850879"><ele>300.0</ele><time>2026-04-26T14:59:28.687Z</time></trkpt><trkpt lat="40.0952851" lon="9.6850909"><ele>300.0</ele><time>2026-04-26T14:59:34.687Z</time></trkpt><trkpt lat="40.0952177" lon="9.6851017"><ele>300.0</ele><time>2026-04-26T14:59:39.687Z</time></trkpt><trkpt lat="40.0950806" lon="9.6850845"><ele>300.0</ele><time>2026-04-26T14:59:50.687Z</time></trkpt><trkpt lat="40.0950326" lon="9.6850286"><ele>300.0</ele><time>2026-04-26T14:59:56.687Z</time></trkpt><trkpt lat="40.0949659" lon="9.6850384"><ele>300.0</ele><time>2026-04-26T15:00:04.707Z</time></trkpt><trkpt lat="40.0948415" lon="9.6850435"><ele>304.0</ele><time>2026-04-26T15:00:18.688Z</time></trkpt><trkpt lat="40.0947939" lon="9.6849812"><ele>308.0</ele><time>2026-04-26T15:00:24.688Z</time></trkpt><trkpt lat="40.0947226" lon="9.6849744"><ele>312.0</ele><time>2026-04-26T15:00:31.687Z</time></trkpt><trkpt lat="40.0945935" lon="9.6849307"><ele>316.0</ele><time>2026-04-26T15:00:46.687Z</time></trkpt><trkpt lat="40.094521" lon="9.6849155"><ele>320.0</ele><time>2026-04-26T15:00:54.687Z</time></trkpt><trkpt lat="40.0943886" lon="9.6849062"><ele>320.0</ele><time>2026-04-26T15:01:07.597Z</time></trkpt><trkpt lat="40.094313" lon="9.6848887"><ele>320.0</ele><time>2026-04-26T15:01:13.678Z</time></trkpt><trkpt lat="40.0942467" lon="9.6848844"><ele>320.0</ele><time>2026-04-26T15:01:20.704Z</time></trkpt><trkpt lat="40.0941183" lon="9.6848532"><ele>320.0</ele><time>2026-04-26T15:01:34.687Z</time></trkpt><trkpt lat="40.0940631" lon="9.6848049"><ele>320.0</ele><time>2026-04-26T15:01:40.687Z</time></trkpt><trkpt lat="40.0939931" lon="9.6848153"><ele>320.0</ele><time>2026-04-26T15:01:48.599Z</time></trkpt><trkpt lat="40.0938817" lon="9.6847285"><ele>322.4</ele><time>2026-04-26T15:02:02.687Z</time></trkpt><trkpt lat="40.0938252" lon="9.6846688"><ele>324.8</ele><time>2026-04-26T15:02:09.687Z</time></trkpt><trkpt lat="40.0937129" lon="9.6845812"><ele>327.20000000000005</ele><time>2026-04-26T15:02:22.688Z</time></trkpt><trkpt lat="40.0936718" lon="9.6845121"><ele>329.6</ele><time>2026-04-26T15:02:28.687Z</time></trkpt><trkpt lat="40.0936243" lon="9.6844474"><ele>332.0</ele><time>2026-04-26T15:02:34.687Z</time></trkpt><trkpt lat="40.0935034" lon="9.6843649"><ele>332.0</ele><time>2026-04-26T15:02:46.688Z</time></trkpt><trkpt lat="40.0934356" lon="9.6843389"><ele>332.0</ele><time>2026-04-26T15:02:52.687Z</time></trkpt><trkpt lat="40.0933645" lon="9.6843154"><ele>332.0</ele><time>2026-04-26T15:02:58.687Z</time></trkpt><trkpt lat="40.0932423" lon="9.6843696"><ele>332.0</ele><time>2026-04-26T15:03:11.687Z</time></trkpt><trkpt lat="40.0931738" lon="9.684389"><ele>332.0</ele><time>2026-04-26T15:03:18.688Z</time></trkpt><trkpt lat="40.093104" lon="9.6843915"><ele>332.0</ele><time>2026-04-26T15:03:25.688Z</time></trkpt><trkpt lat="40.0929856" lon="9.6843169"><ele>334.40000000000003</ele><time>2026-04-26T15:03:39.687Z</time></trkpt><trkpt lat="40.0929205" lon="9.6842912"><ele>336.8</ele><time>2026-04-26T15:03:45.665Z</time></trkpt><trkpt lat="40.0928537" lon="9.6842781"><ele>339.2</ele><time>2026-04-26T15:03:54.621Z</time></trkpt><trkpt lat="40.0927219" lon="9.6842411"><ele>341.6</ele><time>2026-04-26T15:04:10.662Z</time></trkpt><trkpt lat="40.0926589" lon="9.6842384"><ele>344.0</ele><time>2026-04-26T15:04:19.687Z</time></trkpt><trkpt lat="40.0925312" lon="9.6842743"><ele>346.2</ele><time>2026-04-26T15:04:41.687Z</time></trkpt><trkpt lat="40.0923999" lon="9.6842612"><ele>348.4</ele><time>2026-04-26T15:05:01.688Z</time></trkpt><trkpt lat="40.0923324" lon="9.6842671"><ele>350.6</ele><time>2026-04-26T15:05:09.639Z</time></trkpt><trkpt lat="40.0921942" lon="9.6842725"><ele>352.8</ele><time>2026-04-26T15:05:25.687Z</time></trkpt><trkpt lat="40.092125" lon="9.6842748"><ele>355.0</ele><time>2026-04-26T15:05:33.664Z</time></trkpt><trkpt lat="40.0920055" lon="9.6843345"><ele>355.0</ele><time>2026-04-26T15:05:47.688Z</time></trkpt><trkpt lat="40.0919437" lon="9.6843617"><ele>355.0</ele><time>2026-04-26T15:05:55.624Z</time></trkpt><trkpt lat="40.0918236" lon="9.6843855"><ele>355.0</ele><time>2026-04-26T15:06:09.687Z</time></trkpt><trkpt lat="40.0917605" lon="9.6843772"><ele>355.0</ele><time>2026-04-26T15:06:17.688Z</time></trkpt><trkpt lat="40.0916547" lon="9.6844057"><ele>355.0</ele><time>2026-04-26T15:06:34.687Z</time></trkpt><trkpt lat="40.0915976" lon="9.6843695"><ele>355.0</ele><time>2026-04-26T15:06:45.677Z</time></trkpt><trkpt lat="40.0914668" lon="9.6844228"><ele>359.4</ele><time>2026-04-26T15:07:00.687Z</time></trkpt><trkpt lat="40.0914014" lon="9.6843979"><ele>363.8</ele><time>2026-04-26T15:07:07.687Z</time></trkpt><trkpt lat="40.0912682" lon="9.6844672"><ele>368.20000000000005</ele><time>2026-04-26T15:07:23.687Z</time></trkpt><trkpt lat="40.0912025" lon="9.6844498"><ele>372.6</ele><time>2026-04-26T15:07:30.687Z</time></trkpt><trkpt lat="40.0910685" lon="9.6844955"><ele>377.0</ele><time>2026-04-26T15:07:47.602Z</time></trkpt><trkpt lat="40.0910098" lon="9.684453"><ele>379.0</ele><time>2026-04-26T15:07:55.662Z</time></trkpt><trkpt lat="40.0908937" lon="9.6845089"><ele>381.0</ele><time>2026-04-26T15:08:13.687Z</time></trkpt><trkpt lat="40.0908274" lon="9.6844968"><ele>383.0</ele><time>2026-04-26T15:08:22.687Z</time></trkpt><trkpt lat="40.0906941" lon="9.6845163"><ele>385.0</ele><time>2026-04-26T15:10:26.637Z</time></trkpt><trkpt lat="40.0905692" lon="9.6845621"><ele>389.4</ele><time>2026-04-26T15:10:40.658Z</time></trkpt><trkpt lat="40.0905049" lon="9.6845641"><ele>393.8</ele><time>2026-04-26T15:10:47.688Z</time></trkpt><trkpt lat="40.0904302" lon="9.6847161"><ele>398.20000000000005</ele><time>2026-04-26T15:11:05.688Z</time></trkpt><trkpt lat="40.0903803" lon="9.6847822"><ele>402.6</ele><time>2026-04-26T15:11:13.687Z</time></trkpt><trkpt lat="40.0902855" lon="9.684902"><ele>407.0</ele><time>2026-04-26T15:11:30.688Z</time></trkpt><trkpt lat="40.0902205" lon="9.6849307"><ele>407.0</ele><time>2026-04-26T15:11:38.687Z</time></trkpt><trkpt lat="40.090095" lon="9.6849665"><ele>407.0</ele><time>2026-04-26T15:11:56.687Z</time></trkpt><trkpt lat="40.0900418" lon="9.6850177"><ele>407.0</ele><time>2026-04-26T15:12:09.687Z</time></trkpt><trkpt lat="40.0899085" lon="9.6850347"><ele>407.0</ele><time>2026-04-26T15:12:28.687Z</time></trkpt><trkpt lat="40.0898439" lon="9.6850509"><ele>407.0</ele><time>2026-04-26T15:12:37.687Z</time></trkpt><trkpt lat="40.0897258" lon="9.6851124"><ele>412.6</ele><time>2026-04-26T15:13:05.688Z</time></trkpt><trkpt lat="40.0895937" lon="9.6851453"><ele>418.20000000000005</ele><time>2026-04-26T15:13:22.687Z</time></trkpt><trkpt lat="40.0895359" lon="9.6851914"><ele>423.8</ele><time>2026-04-26T15:13:29.687Z</time></trkpt><trkpt lat="40.0894109" lon="9.6852199"><ele>429.4</ele><time>2026-04-26T15:13:45.672Z</time></trkpt><trkpt lat="40.0893566" lon="9.6851645"><ele>435.0</ele><time>2026-04-26T15:13:54.687Z</time></trkpt><trkpt lat="40.0893435" lon="9.6849937"><ele>435.0</ele><time>2026-04-26T15:14:10.687Z</time></trkpt><trkpt lat="40.0893359" lon="9.6849053"><ele>435.0</ele><time>2026-04-26T15:14:29.687Z</time></trkpt><trkpt lat="40.0893281" lon="9.6847443"><ele>435.0</ele><time>2026-04-26T15:14:48.687Z</time></trkpt><trkpt lat="40.0893498" lon="9.6846631"><ele>435.0</ele><time>2026-04-26T15:15:00.677Z</time></trkpt><trkpt lat="40.08924" lon="9.6845762"><ele>435.0</ele><time>2026-04-26T15:15:15.687Z</time></trkpt><trkpt lat="40.0892422" lon="9.6844917"><ele>436.6</ele><time>2026-04-26T15:15:23.687Z</time></trkpt><trkpt lat="40.0891713" lon="9.6843753"><ele>438.2</ele><time>2026-04-26T15:15:40.688Z</time></trkpt><trkpt lat="40.0891794" lon="9.6842859"><ele>439.79999999999995</ele><time>2026-04-26T15:15:51.701Z</time></trkpt><trkpt lat="40.0890708" lon="9.6841861"><ele>441.4</ele><time>2026-04-26T15:16:10.677Z</time></trkpt><trkpt lat="40.0890813" lon="9.6841031"><ele>443.0</ele><time>2026-04-26T15:16:20.687Z</time></trkpt><trkpt lat="40.088953" lon="9.6840842"><ele>448.2</ele><time>2026-04-26T15:16:44.687Z</time></trkpt><trkpt lat="40.0888494" lon="9.6841236"><ele>453.4</ele><time>2026-04-26T15:17:06.688Z</time></trkpt><trkpt lat="40.0887668" lon="9.6840281"><ele>458.59999999999997</ele><time>2026-04-26T15:17:26.687Z</time></trkpt><trkpt lat="40.0887394" lon="9.6839449"><ele>463.79999999999995</ele><time>2026-04-26T15:17:33.687Z</time></trkpt><trkpt lat="40.0886213" lon="9.6838702"><ele>469.0</ele><time>2026-04-26T15:17:47.642Z</time></trkpt><trkpt lat="40.0886055" lon="9.6837782"><ele>469.0</ele><time>2026-04-26T15:17:53.687Z</time></trkpt><trkpt lat="40.0885947" lon="9.6836952"><ele>469.0</ele><time>2026-04-26T15:17:59.688Z</time></trkpt><trkpt lat="40.088621" lon="9.6835235"><ele>469.0</ele><time>2026-04-26T15:18:14.688Z</time></trkpt><trkpt lat="40.0885828" lon="9.6834578"><ele>469.0</ele><time>2026-04-26T15:18:21.688Z</time></trkpt><trkpt lat="40.0884572" lon="9.6834091"><ele>469.0</ele><time>2026-04-26T15:18:34.688Z</time></trkpt><trkpt lat="40.0884027" lon="9.6833637"><ele>467.2</ele><time>2026-04-26T15:18:40.644Z</time></trkpt><trkpt lat="40.0883554" lon="9.6833024"><ele>465.4</ele><time>2026-04-26T15:18:48.705Z</time></trkpt><trkpt lat="40.0884187" lon="9.6831506"><ele>463.6</ele><time>2026-04-26T15:19:06.687Z</time></trkpt><trkpt lat="40.0884681" lon="9.683091"><ele>461.8</ele><time>2026-04-26T15:19:17.687Z</time></trkpt><trkpt lat="40.0885444" lon="9.6829414"><ele>460.0</ele><time>2026-04-26T15:19:33.687Z</time></trkpt><trkpt lat="40.0885608" lon="9.6828611"><ele>460.8</ele><time>2026-04-26T15:19:40.62Z</time></trkpt><trkpt lat="40.0885358" lon="9.6826957"><ele>461.6</ele><time>2026-04-26T15:19:59.687Z</time></trkpt><trkpt lat="40.0885752" lon="9.6826211"><ele>462.4</ele><time>2026-04-26T15:20:05.687Z</time></trkpt><trkpt lat="40.0885927" lon="9.6824429"><ele>463.2</ele><time>2026-04-26T15:20:18.688Z</time></trkpt><trkpt lat="40.0886074" lon="9.6823495"><ele>464.0</ele><time>2026-04-26T15:20:25.687Z</time></trkpt><trkpt lat="40.0886193" lon="9.6822684"><ele>464.0</ele><time>2026-04-26T15:20:31.688Z</time></trkpt><trkpt lat="40.0885472" lon="9.6821162"><ele>464.0</ele><time>2026-04-26T15:20:45.687Z</time></trkpt><trkpt lat="40.0884841" lon="9.6820943"><ele>464.0</ele><time>2026-04-26T15:20:52.687Z</time></trkpt><trkpt lat="40.0883614" lon="9.6820287"><ele>464.0</ele><time>2026-04-26T15:21:06.687Z</time></trkpt><trkpt lat="40.0882997" lon="9.6819831"><ele>464.0</ele><time>2026-04-26T15:21:13.687Z</time></trkpt><trkpt lat="40.0881971" lon="9.6818763"><ele>465.4</ele><time>2026-04-26T15:21:26.687Z</time></trkpt><trkpt lat="40.0881925" lon="9.68179"><ele>466.79999999999995</ele><time>2026-04-26T15:21:35.697Z</time></trkpt><trkpt lat="40.0881334" lon="9.6816353"><ele>468.20000000000005</ele><time>2026-04-26T15:21:51.672Z</time></trkpt><trkpt lat="40.0880873" lon="9.6815791"><ele>469.6</ele><time>2026-04-26T15:21:57.687Z</time></trkpt><trkpt lat="40.0880021" lon="9.6814533"><ele>471.0</ele><time>2026-04-26T15:22:13.636Z</time></trkpt><trkpt lat="40.0879432" lon="9.6814241"><ele>471.0</ele><time>2026-04-26T15:22:21.687Z</time></trkpt><trkpt lat="40.0879224" lon="9.681247"><ele>471.0</ele><time>2026-04-26T15:22:36.688Z</time></trkpt><trkpt lat="40.0879042" lon="9.6811633"><ele>471.0</ele><time>2026-04-26T15:22:44.688Z</time></trkpt><trkpt lat="40.0878247" lon="9.6810472"><ele>471.0</ele><time>2026-04-26T15:22:56.688Z</time></trkpt><trkpt lat="40.0877677" lon="9.6810035"><ele>471.0</ele><time>2026-04-26T15:23:03.687Z</time></trkpt><trkpt lat="40.0877163" lon="9.6809543"><ele>470.6</ele><time>2026-04-26T15:23:10.688Z</time></trkpt><trkpt lat="40.0876171" lon="9.6808438"><ele>470.20000000000005</ele><time>2026-04-26T15:23:24.619Z</time></trkpt><trkpt lat="40.087623" lon="9.6807526"><ele>469.79999999999995</ele><time>2026-04-26T15:23:30.702Z</time></trkpt><trkpt lat="40.0875924" lon="9.6806722"><ele>469.4</ele><time>2026-04-26T15:23:36.687Z</time></trkpt><trkpt lat="40.0874563" lon="9.6806355"><ele>469.0</ele><time>2026-04-26T15:23:50.687Z</time></trkpt><trkpt lat="40.0873854" lon="9.6806106"><ele>468.79999999999995</ele><time>2026-04-26T15:23:57.688Z</time></trkpt><trkpt lat="40.0872577" lon="9.6806055"><ele>468.59999999999997</ele><time>2026-04-26T15:24:08.687Z</time></trkpt><trkpt lat="40.0871928" lon="9.6805857"><ele>468.4</ele><time>2026-04-26T15:24:15.687Z</time></trkpt><trkpt lat="40.0871292" lon="9.6806009"><ele>468.2</ele><time>2026-04-26T15:24:22.688Z</time></trkpt><trkpt lat="40.0869892" lon="9.6805786"><ele>468.0</ele><time>2026-04-26T15:24:35.687Z</time></trkpt><trkpt lat="40.0869257" lon="9.6805793"><ele>468.0</ele><time>2026-04-26T15:24:41.679Z</time></trkpt><trkpt lat="40.0868636" lon="9.6806236"><ele>467.99999999999994</ele><time>2026-04-26T15:24:48.687Z</time></trkpt><trkpt lat="40.0867384" lon="9.6806604"><ele>467.99999999999994</ele><time>2026-04-26T15:25:02.687Z</time></trkpt><trkpt lat="40.0866744" lon="9.6806696"><ele>468.0</ele><time>2026-04-26T15:25:08.688Z</time></trkpt><trkpt lat="40.0866114" lon="9.6806736"><ele>468.0</ele><time>2026-04-26T15:25:14.687Z</time></trkpt><trkpt lat="40.0864823" lon="9.6806898"><ele>467.4</ele><time>2026-04-26T15:25:27.687Z</time></trkpt><trkpt lat="40.0864164" lon="9.6806638"><ele>466.79999999999995</ele><time>2026-04-26T15:25:38.687Z</time></trkpt><trkpt lat="40.0862835" lon="9.6805998"><ele>466.2</ele><time>2026-04-26T15:25:50.687Z</time></trkpt><trkpt lat="40.0862128" lon="9.6806179"><ele>465.6</ele><time>2026-04-26T15:25:56.603Z</time></trkpt><trkpt lat="40.0861428" lon="9.6805998"><ele>465.0</ele><time>2026-04-26T15:26:02.688Z</time></trkpt><trkpt lat="40.0860106" lon="9.6805651"><ele>465.0</ele><time>2026-04-26T15:26:14.687Z</time></trkpt><trkpt lat="40.0859701" lon="9.6805017"><ele>465.0</ele><time>2026-04-26T15:26:20.687Z</time></trkpt><trkpt lat="40.0859059" lon="9.6804674"><ele>465.0</ele><time>2026-04-26T15:26:27.6Z</time></trkpt><trkpt lat="40.0857809" lon="9.6804464"><ele>465.0</ele><time>2026-04-26T15:26:40.687Z</time></trkpt><trkpt lat="40.0857209" lon="9.680416"><ele>465.0</ele><time>2026-04-26T15:26:46.688Z</time></trkpt><trkpt lat="40.085658" lon="9.6803806"><ele>465.0</ele><time>2026-04-26T15:26:53.687Z</time></trkpt><trkpt lat="40.0855431" lon="9.6802866"><ele>463.4</ele><time>2026-04-26T15:27:07.687Z</time></trkpt><trkpt lat="40.0854795" lon="9.6802711"><ele>461.8</ele><time>2026-04-26T15:27:13.687Z</time></trkpt><trkpt lat="40.08541" lon="9.6802518"><ele>460.20000000000005</ele><time>2026-04-26T15:27:20.688Z</time></trkpt><trkpt lat="40.0852907" lon="9.6801832"><ele>458.6</ele><time>2026-04-26T15:27:34.687Z</time></trkpt><trkpt lat="40.0852453" lon="9.6801117"><ele>457.0</ele><time>2026-04-26T15:27:43.687Z</time></trkpt><trkpt lat="40.0851799" lon="9.6799782"><ele>454.40000000000003</ele><time>2026-04-26T15:27:57.688Z</time></trkpt><trkpt lat="40.08513" lon="9.6799257"><ele>451.80000000000007</ele><time>2026-04-26T15:28:07.688Z</time></trkpt><trkpt lat="40.0850456" lon="9.6797904"><ele>449.2</ele><time>2026-04-26T15:28:25.687Z</time></trkpt><trkpt lat="40.0849908" lon="9.6797414"><ele>446.6</ele><time>2026-04-26T15:28:34.687Z</time></trkpt><trkpt lat="40.0848939" lon="9.6796449"><ele>444.0</ele><time>2026-04-26T15:28:52.687Z</time></trkpt><trkpt lat="40.0849003" lon="9.6795529"><ele>439.0</ele><time>2026-04-26T15:29:00.688Z</time></trkpt><trkpt lat="40.084788" lon="9.6794633"><ele>434.0</ele><time>2026-04-26T15:29:14.688Z</time></trkpt><trkpt lat="40.0847208" lon="9.6794424"><ele>429.0</ele><time>2026-04-26T15:29:23.688Z</time></trkpt><trkpt lat="40.0846292" lon="9.6793289"><ele>424.0</ele><time>2026-04-26T15:29:49.687Z</time></trkpt><trkpt lat="40.0845107" lon="9.6792703"><ele>422.0</ele><time>2026-04-26T15:30:17.687Z</time></trkpt><trkpt lat="40.0843833" lon="9.6792421"><ele>420.0</ele><time>2026-04-26T15:30:41.626Z</time></trkpt><trkpt lat="40.084251" lon="9.6792247"><ele>418.0</ele><time>2026-04-26T15:31:00.642Z</time></trkpt><trkpt lat="40.0841933" lon="9.6791911"><ele>416.0</ele><time>2026-04-26T15:31:11.692Z</time></trkpt><trkpt lat="40.0841093" lon="9.6791812"><ele>414.0</ele><time>2026-04-26T15:31:37.7Z</time></trkpt><trkpt lat="40.0839968" lon="9.6792375"><ele>412.6</ele><time>2026-04-26T15:31:57.6Z</time></trkpt><trkpt lat="40.0839353" lon="9.6791991"><ele>411.2</ele><time>2026-04-26T15:32:07.688Z</time></trkpt><trkpt lat="40.0838185" lon="9.6791309"><ele>409.8</ele><time>2026-04-26T15:32:24.688Z</time></trkpt><trkpt lat="40.0837641" lon="9.6790844"><ele>408.40000000000003</ele><time>2026-04-26T15:32:32.687Z</time></trkpt><trkpt lat="40.0836526" lon="9.678998"><ele>407.0</ele><time>2026-04-26T15:32:47.687Z</time></trkpt><trkpt lat="40.0836502" lon="9.6789137"><ele>407.0</ele><time>2026-04-26T15:32:54.688Z</time></trkpt><trkpt lat="40.0836339" lon="9.6787383"><ele>407.0</ele><time>2026-04-26T15:33:09.687Z</time></trkpt><trkpt lat="40.0836586" lon="9.6786565"><ele>407.0</ele><time>2026-04-26T15:33:18.679Z</time></trkpt><trkpt lat="40.08362" lon="9.6784955"><ele>407.0</ele><time>2026-04-26T15:33:32.687Z</time></trkpt><trkpt lat="40.0836161" lon="9.6784"><ele>407.0</ele><time>2026-04-26T15:33:39.687Z</time></trkpt><trkpt lat="40.0835931" lon="9.6782336"><ele>406.99999999999994</ele><time>2026-04-26T15:33:51.687Z</time></trkpt><trkpt lat="40.0835642" lon="9.6781544"><ele>407.0</ele><time>2026-04-26T15:33:57.687Z</time></trkpt><trkpt lat="40.0835254" lon="9.6780827"><ele>407.0</ele><time>2026-04-26T15:34:03.687Z</time></trkpt><trkpt lat="40.0834204" lon="9.678153"><ele>407.0</ele><time>2026-04-26T15:34:16.687Z</time></trkpt><trkpt lat="40.0833747" lon="9.6782118"><ele>406.99999999999994</ele><time>2026-04-26T15:34:22.687Z</time></trkpt><trkpt lat="40.0833322" lon="9.6782804"><ele>407.0</ele><time>2026-04-26T15:34:30.687Z</time></trkpt><trkpt lat="40.0832261" lon="9.678491"><ele>407.0</ele><time>2026-04-26T15:35:47.687Z</time></trkpt></trkseg></trk></gpx>